createdAt,value
2019-03-09T00:10:09.270Z,1006.7
2019-03-09T00:15:04.439Z,1006.7
2019-03-09T00:20:04.145Z,1006.6
2019-03-09T00:30:11.249Z,1006.5
2019-03-09T00:35:03.850Z,1006.6
2019-03-09T00:40:03.648Z,1006.6
2019-03-09T00:55:14.475Z,1006.5
2019-03-09T01:00:03.911Z,1006.5
2019-03-09T01:05:04.377Z,1006.5
2019-03-09T01:20:12.515Z,1006.4
2019-03-09T01:25:03.936Z,1006.4
2019-03-09T01:40:18.675Z,1006.4
2019-03-09T01:45:04.051Z,1006.4
2019-03-09T01:50:04.034Z,1006.3
2019-03-09T02:05:09.172Z,1006.2
2019-03-09T02:10:04.213Z,1006.4
2019-03-09T02:25:17.457Z,1006.5
2019-03-09T02:30:04.570Z,1006.3
2019-03-09T02:35:04.520Z,1006.3
2019-03-09T02:50:11.746Z,1006.5
2019-03-09T02:55:04.016Z,1006.5
2019-03-09T03:00:04.221Z,1006.7
2019-03-09T03:15:11.689Z,1006.9
2019-03-09T03:20:04.357Z,1007
2019-03-09T03:25:04.165Z,1007
2019-03-09T03:40:11.735Z,1007.1
2019-03-09T03:45:04.717Z,1007.1
2019-03-09T03:50:07.718Z,1007.2
2019-03-09T04:00:13.282Z,1007.2
2019-03-09T04:05:04.106Z,1007.2
2019-03-09T04:10:04.108Z,1007.1
2019-03-09T04:20:07.716Z,1007.4
2019-03-09T04:25:03.843Z,1007.3
2019-03-09T04:30:03.633Z,1007.6
2019-03-09T04:35:03.508Z,1007.8
2019-03-09T04:40:03.565Z,1007.8
2019-03-09T04:45:03.690Z,1007.9
2019-03-09T04:50:03.695Z,1007.9
2019-03-09T04:55:03.567Z,1008
2019-03-09T05:00:04.233Z,1007.9
2019-03-09T05:05:03.634Z,1007.9
2019-03-09T05:10:03.759Z,1008
2019-03-09T05:15:04.955Z,1008.1
2019-03-09T05:20:03.813Z,1008.2
2019-03-09T05:25:03.453Z,1008.3
2019-03-09T05:30:03.401Z,1008.2
2019-03-09T05:35:03.589Z,1008.1
2019-03-09T05:40:03.513Z,1008.7
2019-03-09T05:45:03.510Z,1008.7
2019-03-09T05:50:04.674Z,1008.6
2019-03-09T05:55:03.495Z,1008.6
2019-03-09T06:00:03.726Z,1008.3
2019-03-09T06:05:03.546Z,1008
2019-03-09T06:10:03.552Z,1008.6
2019-03-09T06:15:03.836Z,1008.8
2019-03-09T06:20:03.404Z,1008.7
2019-03-09T06:25:03.490Z,1009.1
2019-03-09T06:30:03.439Z,1009
2019-03-09T06:35:03.451Z,1008.8
2019-03-09T06:40:03.379Z,1009.2
2019-03-09T06:45:03.543Z,1009.3
2019-03-09T06:50:03.338Z,1009.3
2019-03-09T06:55:03.371Z,1009.1
2019-03-09T07:00:03.731Z,1009.4
2019-03-09T07:05:03.527Z,1009.4
2019-03-09T07:10:03.219Z,1009.3
2019-03-09T07:15:03.687Z,1009.5
2019-03-09T07:20:12.186Z,1009.4
2019-03-09T07:25:03.356Z,1009.2
2019-03-09T07:30:03.519Z,1009.4
2019-03-09T07:35:03.437Z,1009.5
2019-03-09T07:40:04.007Z,1009.4
2019-03-09T07:45:03.635Z,1009.5
2019-03-09T07:50:03.649Z,1009.7
2019-03-09T07:55:03.490Z,1009.5
2019-03-09T08:00:03.456Z,1009.6
2019-03-09T08:05:03.297Z,1009.5
2019-03-09T08:10:03.430Z,1009.6
2019-03-09T08:15:03.317Z,1009.7
2019-03-09T08:20:03.604Z,1009.6
2019-03-09T08:25:03.497Z,1009.6
2019-03-09T08:30:03.874Z,1009.7
2019-03-09T08:35:03.338Z,1009.7
2019-03-09T08:40:03.171Z,1009.7
2019-03-09T08:45:03.291Z,1009.6
2019-03-09T08:50:03.361Z,1009.6
2019-03-09T08:55:03.354Z,1009.8
2019-03-09T09:00:03.615Z,1009.8
2019-03-09T09:05:03.295Z,1009.6
2019-03-09T09:10:03.604Z,1009.6
2019-03-09T09:15:03.141Z,1009.3
2019-03-09T09:20:03.408Z,1009.5
2019-03-09T09:25:03.346Z,1009.4
2019-03-09T09:30:03.159Z,1009.5
2019-03-09T09:35:03.684Z,1009.3
2019-03-09T09:40:03.157Z,1009.2
2019-03-09T09:45:03.418Z,1009.2
2019-03-09T09:50:03.513Z,1009.4
2019-03-09T09:55:03.177Z,1009.6
2019-03-09T10:00:03.522Z,1009.6
2019-03-09T10:05:03.066Z,1009.6
2019-03-09T10:10:03.210Z,1009.5
2019-03-09T10:15:03.071Z,1009.5
2019-03-09T10:20:03.203Z,1009.6
2019-03-09T10:25:03.343Z,1009.6
2019-03-09T10:30:03.000Z,1009.6
2019-03-09T10:35:03.098Z,1009.4
2019-03-09T10:40:03.320Z,1009.3
2019-03-09T10:45:02.926Z,1009.3
2019-03-09T10:50:03.216Z,1009.2
2019-03-09T10:55:02.985Z,1009.1
2019-03-09T11:00:03.257Z,1009
2019-03-09T11:05:02.977Z,1009.1
2019-03-09T11:10:03.200Z,1009
2019-03-09T11:15:03.101Z,1008.8
2019-03-09T11:20:03.210Z,1008.7
2019-03-09T11:25:04.074Z,1008.7
2019-03-09T11:30:02.966Z,1008.5
2019-03-09T11:35:02.926Z,1008.3
2019-03-09T11:40:03.302Z,1008.4
2019-03-09T11:45:03.227Z,1008.5
2019-03-09T11:50:02.801Z,1008.3
2019-03-09T11:55:03.212Z,1008.5
2019-03-09T12:00:03.192Z,1008.2
2019-03-09T12:05:03.189Z,1008.1
2019-03-09T12:10:02.803Z,1007.9
2019-03-09T12:15:03.228Z,1007.7
2019-03-09T12:20:03.445Z,1007.6
2019-03-09T12:25:03.111Z,1007.5
2019-03-09T12:30:04.067Z,1007.3
2019-03-09T12:35:02.969Z,1007.1
2019-03-09T12:40:02.888Z,1007
2019-03-09T12:45:03.064Z,1006.9
2019-03-09T12:50:02.984Z,1006.9
2019-03-09T12:55:03.067Z,1006.9
2019-03-09T13:00:03.067Z,1007
2019-03-09T13:05:02.779Z,1006.9
2019-03-09T13:10:03.383Z,1006.8
2019-03-09T13:15:04.755Z,1006.7
2019-03-09T13:20:02.783Z,1006.8
2019-03-09T13:25:02.716Z,1006.6
2019-03-09T13:30:05.077Z,1006.5
2019-03-09T13:35:02.996Z,1006.5
2019-03-09T13:40:03.904Z,1006.5
2019-03-09T13:45:03.092Z,1006.5
2019-03-09T13:50:03.216Z,1006.7
2019-03-09T13:55:03.098Z,1006.6
2019-03-09T14:00:03.107Z,1007.1
2019-03-09T14:05:02.997Z,1007.6
2019-03-09T14:10:02.734Z,1008.2
2019-03-09T14:15:02.756Z,1007.8
2019-03-09T14:20:02.703Z,1006.9
2019-03-09T14:25:02.753Z,1007.1
2019-03-09T14:30:03.234Z,1007.4
2019-03-09T14:35:02.668Z,1007.6
2019-03-09T14:40:03.149Z,1008.2
2019-03-09T14:45:02.756Z,1008.3
2019-03-09T14:50:03.075Z,1007.9
2019-03-09T14:55:02.646Z,1008
2019-03-09T15:00:02.790Z,1008.3
2019-03-09T15:05:02.984Z,1008.1
2019-03-09T15:10:03.096Z,1008.3
2019-03-09T15:15:02.866Z,1008.5
2019-03-09T15:20:03.050Z,1008.5
2019-03-09T15:25:03.084Z,1008.7
2019-03-09T15:30:02.882Z,1008.8
2019-03-09T15:35:02.860Z,1009
2019-03-09T15:40:02.676Z,1009.1
2019-03-09T15:45:02.781Z,1009.2
2019-03-09T15:50:02.736Z,1009.3
2019-03-09T15:55:02.761Z,1009.4
2019-03-09T16:00:02.803Z,1009.6
2019-03-09T16:05:02.795Z,1009.7
2019-03-09T16:10:02.816Z,1009.8
2019-03-09T16:15:02.584Z,1009.9
2019-03-09T16:20:02.779Z,1010.2
2019-03-09T16:25:02.602Z,1010.2
2019-03-09T16:30:02.697Z,1010.4
2019-03-09T16:35:02.533Z,1010.6
2019-03-09T16:40:02.699Z,1010.6
2019-03-09T16:45:02.753Z,1010.8
2019-03-09T16:50:02.669Z,1011
2019-03-09T16:55:02.835Z,1011.2
2019-03-09T17:00:02.818Z,1011.4
2019-03-09T17:05:02.634Z,1011.4
2019-03-09T17:10:02.541Z,1011.6
2019-03-09T17:15:02.738Z,1011.8
2019-03-09T17:20:02.373Z,1011.9
2019-03-09T17:25:02.947Z,1012.1
2019-03-09T17:30:02.575Z,1012.1
2019-03-09T17:35:03.567Z,1012.2
2019-03-09T17:40:02.950Z,1012.3
2019-03-09T17:45:02.483Z,1012.4
2019-03-09T17:50:02.837Z,1012.5
2019-03-09T17:55:02.355Z,1012.6
2019-03-09T18:00:02.725Z,1012.7
2019-03-09T18:05:02.709Z,1012.7
2019-03-09T18:10:02.531Z,1012.8
2019-03-09T18:15:02.385Z,1012.8
2019-03-09T18:20:02.529Z,1012.8
2019-03-09T18:25:02.538Z,1012.9
2019-03-09T18:30:02.676Z,1013.1
2019-03-09T18:35:02.606Z,1013.1
2019-03-09T18:40:02.822Z,1013.1
2019-03-09T18:45:02.688Z,1013.2
2019-03-09T18:50:02.285Z,1013.2
2019-03-09T18:55:02.302Z,1013.3
2019-03-09T19:00:02.375Z,1013.3
2019-03-09T19:05:02.241Z,1013.3
2019-03-09T19:10:02.243Z,1013.3
2019-03-09T19:15:02.383Z,1013.3
2019-03-09T19:20:02.582Z,1013.3
2019-03-09T19:25:02.441Z,1013.4
2019-03-09T19:30:02.605Z,1013.5
2019-03-09T19:35:02.192Z,1013.4
2019-03-09T19:40:02.370Z,1013.5
2019-03-09T19:45:02.232Z,1013.5
2019-03-09T19:50:02.497Z,1013.5
2019-03-09T19:55:02.305Z,1013.5
2019-03-09T20:00:02.288Z,1013.6
2019-03-09T20:05:02.465Z,1013.6
2019-03-09T20:10:02.227Z,1013.6
2019-03-09T20:15:02.063Z,1013.6
2019-03-09T20:20:02.476Z,1013.6
2019-03-09T20:25:02.421Z,1013.5
2019-03-09T20:30:02.224Z,1013.6
2019-03-09T20:35:02.520Z,1013.5
2019-03-09T20:40:02.267Z,1013.6
2019-03-09T20:45:02.133Z,1013.6
2019-03-09T20:50:02.056Z,1013.6
2019-03-09T20:55:02.023Z,1013.6
2019-03-09T21:00:02.425Z,1013.8
2019-03-09T21:05:02.185Z,1013.8
2019-03-09T21:10:02.343Z,1013.8
2019-03-09T21:15:02.043Z,1013.7
2019-03-09T21:20:02.230Z,1013.6
2019-03-09T21:25:02.161Z,1013.7
2019-03-09T21:30:02.230Z,1013.8
2019-03-09T21:35:02.628Z,1013.8
2019-03-09T21:40:02.771Z,1013.8
2019-03-09T21:45:02.298Z,1013.8
2019-03-09T21:50:02.166Z,1013.9
2019-03-09T21:55:02.029Z,1013.7
2019-03-09T22:00:02.725Z,1013.8
2019-03-09T22:05:02.202Z,1013.8
2019-03-09T22:10:02.220Z,1013.7
2019-03-09T22:15:02.046Z,1013.6
2019-03-09T22:20:02.067Z,1013.6
2019-03-09T22:25:02.211Z,1013.7
2019-03-09T22:30:02.507Z,1013.7
2019-03-09T22:35:02.292Z,1013.7
2019-03-09T22:40:02.162Z,1013.6
2019-03-09T22:45:01.815Z,1013.5
2019-03-09T22:50:01.979Z,1013.4
2019-03-09T22:55:02.024Z,1013.5
2019-03-09T23:00:02.444Z,1013.4
2019-03-09T23:05:02.272Z,1013.4
2019-03-09T23:10:01.947Z,1013.5
2019-03-09T23:15:02.289Z,1013.5
2019-03-09T23:20:01.900Z,1013.6
2019-03-09T23:25:02.111Z,1013.4
2019-03-09T23:30:02.053Z,1013.4
2019-03-09T23:35:01.946Z,1013.4
2019-03-09T23:40:02.247Z,1013.1
2019-03-09T23:45:01.856Z,1013.1
2019-03-09T23:50:01.890Z,1013
2019-03-09T23:55:01.986Z,1012.8
